createdAt,value
2018-10-01T00:00:03.685Z,1006.16
2018-10-01T00:01:13.638Z,1006.18
2018-10-01T00:02:23.592Z,1006.14
2018-10-01T00:03:33.549Z,1006.16
2018-10-01T00:04:43.329Z,1006.14
2018-10-01T00:05:53.276Z,1006.15
2018-10-01T00:07:02.960Z,1006.15
2018-10-01T00:08:12.907Z,1006.18
2018-10-01T00:09:23.088Z,1006.15
2018-10-01T00:10:33.034Z,1006.08
2018-10-01T00:11:42.970Z,1006.08
2018-10-01T00:12:52.912Z,1006.07
2018-10-01T00:14:02.335Z,1005.99
2018-10-01T00:15:12.048Z,1006.04
2018-10-01T00:16:21.994Z,1006.09
2018-10-01T00:17:31.931Z,1006.04
2018-10-01T00:18:41.864Z,1006.04
2018-10-01T00:19:51.557Z,1006.03
2018-10-01T00:21:01.493Z,1006.04
2018-10-01T00:22:10.911Z,1005.98
2018-10-01T00:23:20.852Z,1006.03
2018-10-01T00:24:31.028Z,1006
2018-10-01T00:25:40.973Z,1005.98
2018-10-01T00:26:50.898Z,1006.01
2018-10-01T00:28:00.847Z,1005.98
2018-10-01T00:29:10.536Z,1005.95
2018-10-01T00:30:20.475Z,1005.99
2018-10-01T00:31:30.412Z,1005.95
2018-10-01T00:32:40.115Z,1005.96
2018-10-01T00:33:50.055Z,1005.95
2018-10-01T00:34:59.996Z,1005.94
2018-10-01T00:36:09.924Z,1005.87
2018-10-01T00:37:19.869Z,1005.89
2018-10-01T00:38:29.589Z,1005.91
2018-10-01T00:39:39.869Z,1005.88
2018-10-01T00:40:49.867Z,1005.82
2018-10-01T00:41:59.815Z,1005.81
2018-10-01T00:43:09.743Z,1005.83
2018-10-01T00:44:19.694Z,1005.81
2018-10-01T00:45:29.384Z,1005.82
2018-10-01T00:46:38.798Z,1005.83
2018-10-01T00:47:48.583Z,1005.78
2018-10-01T00:48:58.522Z,1005.81
2018-10-01T00:50:08.213Z,1005.79
2018-10-01T00:51:18.145Z,1005.8
2018-10-01T00:52:27.842Z,1005.81
2018-10-01T00:53:37.532Z,1005.77
2018-10-01T00:54:47.469Z,1005.78
2018-10-01T00:55:57.145Z,1005.8
2018-10-01T00:57:07.138Z,1005.8
2018-10-01T00:58:17.091Z,1005.82
2018-10-01T00:59:26.780Z,1005.84
2018-10-01T01:00:36.476Z,1005.79
2018-10-01T01:01:46.165Z,1005.8
2018-10-01T01:02:55.855Z,1005.83
2018-10-01T01:04:05.797Z,1005.76
2018-10-01T01:05:15.740Z,1005.77
2018-10-01T01:06:25.420Z,1005.79
2018-10-01T01:07:35.107Z,1005.77
2018-10-01T01:08:45.043Z,1005.77
2018-10-01T01:09:54.999Z,1005.75
2018-10-01T01:11:04.933Z,1005.71
2018-10-01T01:12:14.877Z,1005.77
2018-10-01T01:13:24.818Z,1005.74
2018-10-01T01:14:34.753Z,1005.73
2018-10-01T01:15:44.165Z,1005.73
2018-10-01T01:16:54.101Z,1005.73
2018-10-01T01:18:03.797Z,1005.72
2018-10-01T01:19:13.732Z,1005.71
2018-10-01T01:20:23.686Z,1005.7
2018-10-01T01:21:33.624Z,1005.66
2018-10-01T01:22:43.553Z,1005.66
2018-10-01T01:23:53.285Z,1005.65
2018-10-01T01:25:03.235Z,1005.67
2018-10-01T01:26:12.915Z,1005.69
2018-10-01T01:27:22.604Z,1005.66
2018-10-01T01:28:32.556Z,1005.69
2018-10-01T01:29:42.507Z,1005.67
2018-10-01T01:30:52.453Z,1005.67
2018-10-01T01:32:02.395Z,1005.68
2018-10-01T01:33:12.065Z,1005.69
2018-10-01T01:34:22.006Z,1005.7
2018-10-01T01:35:31.933Z,1005.68
2018-10-01T01:36:41.868Z,1005.78
2018-10-01T01:37:51.337Z,1005.78
2018-10-01T01:39:01.025Z,1005.72
2018-10-01T01:40:10.967Z,1005.72
2018-10-01T01:41:20.641Z,1005.71
2018-10-01T01:42:30.336Z,1005.69
2018-10-01T01:43:40.268Z,1005.69
2018-10-01T01:44:49.948Z,1005.62
2018-10-01T01:45:59.879Z,1005.66
2018-10-01T01:47:09.813Z,1005.66
2018-10-01T01:48:19.504Z,1005.58
2018-10-01T01:49:29.183Z,1005.62
2018-10-01T01:50:39.132Z,1005.6
2018-10-01T01:51:49.086Z,1005.52
2018-10-01T01:52:58.760Z,1005.48
2018-10-01T01:54:08.709Z,1005.55
2018-10-01T01:55:18.399Z,1005.53
2018-10-01T01:56:28.322Z,1005.53
2018-10-01T01:57:38.260Z,1005.53
2018-10-01T01:58:47.677Z,1005.54
2018-10-01T01:59:57.380Z,1005.53
2018-10-01T02:01:07.063Z,1005.5
2018-10-01T02:02:16.732Z,1005.53
2018-10-01T02:03:26.423Z,1005.52
2018-10-01T02:04:36.350Z,1005.46
2018-10-01T02:05:46.279Z,1005.46
2018-10-01T02:06:56.240Z,1005.44
2018-10-01T02:08:05.909Z,1005.45
2018-10-01T02:09:15.861Z,1005.45
2018-10-01T02:10:25.821Z,1005.46
2018-10-01T02:11:35.815Z,1005.46
2018-10-01T02:12:45.752Z,1005.48
2018-10-01T02:13:55.430Z,1005.41
2018-10-01T02:15:05.370Z,1005.39
2018-10-01T02:16:15.054Z,1005.45
2018-10-01T02:17:25.022Z,1005.41
2018-10-01T02:18:34.946Z,1005.44
2018-10-01T02:19:44.877Z,1005.45
2018-10-01T02:20:54.824Z,1005.42
2018-10-01T02:22:04.268Z,1005.45
2018-10-01T02:23:13.961Z,1005.43
2018-10-01T02:24:23.649Z,1005.41
2018-10-01T02:25:33.591Z,1005.39
2018-10-01T02:26:43.288Z,1005.42
2018-10-01T02:27:52.704Z,1005.39
2018-10-01T02:29:02.388Z,1005.37
2018-10-01T02:30:12.326Z,1005.4
2018-10-01T02:31:22.283Z,1005.39
2018-10-01T02:32:32.214Z,1005.36
2018-10-01T02:33:42.160Z,1005.37
2018-10-01T02:34:52.124Z,1005.34
2018-10-01T02:36:02.069Z,1005.37
2018-10-01T02:37:12.089Z,1005.36
2018-10-01T02:38:22.039Z,1005.37
2018-10-01T02:39:31.992Z,1005.32
2018-10-01T02:40:41.919Z,1005.33
2018-10-01T02:41:51.600Z,1005.34
2018-10-01T02:43:01.590Z,1005.33
2018-10-01T02:44:11.523Z,1005.36
2018-10-01T02:45:21.466Z,1005.42
2018-10-01T02:46:31.405Z,1005.42
2018-10-01T02:47:41.432Z,1005.48
2018-10-01T02:48:51.862Z,1005.47
2018-10-01T02:50:01.546Z,1005.48
2018-10-01T02:51:11.488Z,1005.44
2018-10-01T02:52:21.177Z,1005.49
2018-10-01T02:53:31.118Z,1005.59
2018-10-01T02:54:41.063Z,1005.63
2018-10-01T02:55:51.011Z,1005.6
2018-10-01T02:57:00.419Z,1005.51
2018-10-01T02:58:10.375Z,1005.47
2018-10-01T02:59:20.367Z,1005.41
2018-10-01T03:00:30.297Z,1005.43
2018-10-01T03:01:39.723Z,1005.45
2018-10-01T03:02:49.662Z,1005.41
2018-10-01T03:03:59.610Z,1005.47
2018-10-01T03:05:09.585Z,1005.41
2018-10-01T03:06:19.553Z,1005.35
2018-10-01T03:07:29.523Z,1005.37
2018-10-01T03:08:39.470Z,1005.34
2018-10-01T03:09:49.409Z,1005.24
2018-10-01T03:10:59.099Z,1005.25
2018-10-01T03:12:09.085Z,1005.23
2018-10-01T03:13:19.473Z,1005.18
2018-10-01T03:14:29.181Z,1005.19
2018-10-01T03:15:39.127Z,1005.16
2018-10-01T03:16:48.806Z,1005.16
2018-10-01T03:17:58.798Z,1005.21
2018-10-01T03:19:08.211Z,1005.17
2018-10-01T03:20:18.193Z,1005.17
2018-10-01T03:21:28.131Z,1005.14
2018-10-01T03:22:38.114Z,1005.04
2018-10-01T03:23:47.551Z,1005.1
2018-10-01T03:24:57.509Z,1005.11
2018-10-01T03:26:07.468Z,1005.14
2018-10-01T03:27:17.427Z,1005.09
2018-10-01T03:28:27.364Z,1005.08
2018-10-01T03:29:37.036Z,1005.08
2018-10-01T03:30:47.009Z,1005.09
2018-10-01T03:31:56.950Z,1005.1
2018-10-01T03:33:06.635Z,1005.08
2018-10-01T03:34:16.304Z,1005.11
2018-10-01T03:35:25.982Z,1005.09
2018-10-01T03:36:35.662Z,1005.04
2018-10-01T03:37:45.589Z,1005.01
2018-10-01T03:38:55.523Z,1005.04
2018-10-01T03:40:05.232Z,1005.02
2018-10-01T03:41:15.721Z,1005.07
2018-10-01T03:42:25.653Z,1005.1
2018-10-01T03:43:35.594Z,1005.05
2018-10-01T03:44:45.547Z,1005.03
2018-10-01T03:45:55.234Z,1005.01
2018-10-01T03:47:04.663Z,1005.04
2018-10-01T03:48:14.617Z,1005.05
2018-10-01T03:49:24.554Z,1005.12
2018-10-01T03:50:34.223Z,1005.11
2018-10-01T03:51:44.159Z,1005.09
2018-10-01T03:52:54.130Z,1005.12
2018-10-01T03:54:04.071Z,1005.16
2018-10-01T03:55:14.029Z,1005.16
2018-10-01T03:56:23.698Z,1005.14
2018-10-01T03:57:33.124Z,1005.15
2018-10-01T03:58:43.073Z,1005.17
2018-10-01T03:59:52.752Z,1005.18
2018-10-01T04:01:02.682Z,1005.13
2018-10-01T04:02:12.396Z,1005.16
2018-10-01T04:03:22.325Z,1005.08
2018-10-01T04:04:32.503Z,1005.09
2018-10-01T04:05:42.451Z,1005.11
2018-10-01T04:06:52.444Z,1005.08
2018-10-01T04:08:02.397Z,1005.1
2018-10-01T04:09:12.328Z,1005.14
2018-10-01T04:10:22.280Z,1005.18
2018-10-01T04:11:32.243Z,1005.08
2018-10-01T04:12:41.935Z,1005.15
2018-10-01T04:13:51.892Z,1005.12
2018-10-01T04:15:01.867Z,1005.11
2018-10-01T04:16:11.837Z,1005.09
2018-10-01T04:17:21.517Z,1005.1
2018-10-01T04:18:30.931Z,1005.1
2018-10-01T04:19:40.869Z,1005.06
2018-10-01T04:20:50.551Z,1005.08
2018-10-01T04:22:00.508Z,1005.1
2018-10-01T04:23:10.457Z,1005.12
2018-10-01T04:24:20.147Z,1005.12
2018-10-01T04:25:30.110Z,1005.11
2018-10-01T04:26:40.053Z,1005.12
2018-10-01T04:27:49.758Z,1005.08
2018-10-01T04:28:59.701Z,1005.09
2018-10-01T04:30:09.640Z,1005.1
2018-10-01T04:31:19.318Z,1005.11
2018-10-01T04:32:29.275Z,1005.1
2018-10-01T04:33:38.971Z,1005.07
2018-10-01T04:34:48.389Z,1005.07
2018-10-01T04:35:58.054Z,1005.06
2018-10-01T04:37:07.996Z,1005.02
2018-10-01T04:38:17.978Z,1005.06
2018-10-01T04:39:27.660Z,1004.99
2018-10-01T04:40:37.699Z,1005.01
2018-10-01T04:41:47.831Z,1004.97
2018-10-01T04:42:57.984Z,1004.97
2018-10-01T04:44:07.930Z,1004.96
2018-10-01T04:45:17.883Z,1004.98
2018-10-01T04:46:27.846Z,1004.99
2018-10-01T04:47:37.833Z,1005
2018-10-01T04:48:47.775Z,1005.01
2018-10-01T04:49:57.723Z,1005
2018-10-01T04:51:07.417Z,1005.06
2018-10-01T04:52:17.378Z,1005.11
2018-10-01T04:53:27.310Z,1005.07
2018-10-01T04:54:37.006Z,1005.04
2018-10-01T04:55:46.700Z,1005.08
2018-10-01T04:56:56.406Z,1005.11
2018-10-01T04:58:06.143Z,1005.12
2018-10-01T04:59:16.684Z,1005.09
2018-10-01T05:00:26.645Z,1005.14
2018-10-01T05:01:36.616Z,1005.09
2018-10-01T05:02:46.305Z,1005.12
2018-10-01T05:03:56.262Z,1005.11
2018-10-01T05:05:06.212Z,1005.1
2018-10-01T05:06:16.196Z,1005.13
2018-10-01T05:07:26.017Z,1005.13
2018-10-01T05:08:35.962Z,1005.12
2018-10-01T05:09:45.663Z,1005.15
2018-10-01T05:10:55.609Z,1005.11
2018-10-01T05:12:05.291Z,1005.19
2018-10-01T05:13:15.238Z,1005.17
2018-10-01T05:14:25.171Z,1005.14
2018-10-01T05:15:35.153Z,1005.19
2018-10-01T05:16:44.837Z,1005.24
2018-10-01T05:17:54.773Z,1005.23
2018-10-01T05:19:04.732Z,1005.24
2018-10-01T05:20:14.690Z,1005.19
2018-10-01T05:21:24.646Z,1005.23
2018-10-01T05:22:34.596Z,1005.2
2018-10-01T05:23:44.022Z,1005.2
2018-10-01T05:24:53.710Z,1005.22
2018-10-01T05:26:03.633Z,1005.26
2018-10-01T05:27:13.336Z,1005.21
2018-10-01T05:28:23.594Z,1005.24
2018-10-01T05:29:33.294Z,1005.25
2018-10-01T05:30:43.250Z,1005.26
2018-10-01T05:31:52.676Z,1005.25
2018-10-01T05:33:02.623Z,1005.26
2018-10-01T05:34:12.307Z,1005.26
2018-10-01T05:35:22.006Z,1005.27
2018-10-01T05:36:31.703Z,1005.26
2018-10-01T05:37:41.498Z,1005.25
2018-10-01T05:38:51.848Z,1005.18
2018-10-01T05:40:01.817Z,1005.18
2018-10-01T05:41:11.794Z,1005.22
2018-10-01T05:42:21.479Z,1005.24
2018-10-01T05:43:31.171Z,1005.26
2018-10-01T05:44:41.127Z,1005.28
2018-10-01T05:45:51.105Z,1005.31
2018-10-01T05:47:01.052Z,1005.29
2018-10-01T05:48:10.999Z,1005.29
2018-10-01T05:49:20.933Z,1005.31
2018-10-01T05:50:30.880Z,1005.32
2018-10-01T05:51:40.553Z,1005.33
2018-10-01T05:52:50.497Z,1005.33
2018-10-01T05:54:00.485Z,1005.32
2018-10-01T05:55:10.265Z,1005.34
2018-10-01T05:56:20.239Z,1005.31
2018-10-01T05:57:30.219Z,1005.32
2018-10-01T05:58:40.362Z,1005.34
2018-10-01T05:59:50.070Z,1005.37
2018-10-01T06:01:00.034Z,1005.4
2018-10-01T06:02:09.988Z,1005.4
2018-10-01T06:03:19.931Z,1005.43
2018-10-01T06:04:29.892Z,1005.41
2018-10-01T06:05:40.104Z,1005.41
2018-10-01T06:06:50.071Z,1005.43
2018-10-01T06:07:59.747Z,1005.42
2018-10-01T06:09:09.756Z,1005.42
2018-10-01T06:10:19.754Z,1005.46
2018-10-01T06:11:29.708Z,1005.47
2018-10-01T06:12:39.659Z,1005.46
2018-10-01T06:13:49.608Z,1005.49
2018-10-01T06:14:59.552Z,1005.48
2018-10-01T06:16:09.497Z,1005.5
2018-10-01T06:17:19.453Z,1005.5
2018-10-01T06:18:29.154Z,1005.54
2018-10-01T06:19:39.110Z,1005.53
2018-10-01T06:20:49.056Z,1005.52
2018-10-01T06:21:58.997Z,1005.52
2018-10-01T06:23:08.439Z,1005.47
2018-10-01T06:24:18.406Z,1005.55
2018-10-01T06:25:28.370Z,1005.55
2018-10-01T06:26:38.312Z,1005.62
2018-10-01T06:27:48.278Z,1005.67
2018-10-01T06:28:58.676Z,1005.62
2018-10-01T06:30:08.352Z,1005.68
2018-10-01T06:31:18.292Z,1005.75
2018-10-01T06:32:28.218Z,1005.67
2018-10-01T06:33:38.168Z,1005.71
2018-10-01T06:34:48.132Z,1005.68
2018-10-01T06:35:57.603Z,1005.65
2018-10-01T06:37:07.591Z,1005.67
2018-10-01T06:38:17.319Z,1005.63
2018-10-01T06:39:27.051Z,1005.61
2018-10-01T06:40:36.850Z,1005.65
2018-10-01T06:41:46.628Z,1005.67
2018-10-01T06:42:56.836Z,1005.66
2018-10-01T06:44:06.034Z,1005.66
2018-10-01T06:45:15.495Z,1005.69
2018-10-01T06:46:25.203Z,1005.72
2018-10-01T06:47:34.899Z,1005.71
2018-10-01T06:48:44.593Z,1005.72
2018-10-01T06:49:54.554Z,1005.72
2018-10-01T06:51:04.014Z,1005.74
2018-10-01T06:52:14.275Z,1005.74
2018-10-01T06:53:23.724Z,1005.66
2018-10-01T06:54:33.416Z,1005.67
2018-10-01T06:55:43.376Z,1005.66
2018-10-01T06:56:52.825Z,1005.62
2018-10-01T06:58:02.525Z,1005.67
2018-10-01T06:59:12.222Z,1005.67
2018-10-01T07:00:22.183Z,1005.71
2018-10-01T07:01:32.187Z,1005.67
2018-10-01T07:02:41.617Z,1005.66
2018-10-01T07:03:51.069Z,1005.69
2018-10-01T07:05:00.512Z,1005.64
2018-10-01T07:06:10.218Z,1005.63
2018-10-01T07:07:20.482Z,1005.63
2018-10-01T07:08:30.439Z,1005.65
2018-10-01T07:09:40.189Z,1005.61
2018-10-01T07:10:49.896Z,1005.63
2018-10-01T07:11:59.597Z,1005.7
2018-10-01T07:13:09.300Z,1005.66
2018-10-01T07:14:19.267Z,1005.67
2018-10-01T07:15:29.275Z,1005.72
2018-10-01T07:16:39.226Z,1005.66
2018-10-01T07:17:49.879Z,1005.68
2018-10-01T07:18:59.869Z,1005.69
2018-10-01T07:20:09.810Z,1005.66
2018-10-01T07:21:19.776Z,1005.69
2018-10-01T07:22:29.512Z,1005.67
2018-10-01T07:23:40.170Z,1005.69
2018-10-01T07:24:50.127Z,1005.69
2018-10-01T07:26:00.305Z,1005.7
2018-10-01T07:27:10.267Z,1005.68
2018-10-01T07:28:19.954Z,1005.77
2018-10-01T07:29:29.915Z,1005.74
2018-10-01T07:30:39.354Z,1005.79
2018-10-01T07:31:49.307Z,1005.75
2018-10-01T07:32:59.018Z,1005.79
2018-10-01T07:34:08.967Z,1005.77
2018-10-01T07:35:18.918Z,1005.82
2018-10-01T07:36:28.874Z,1005.83
2018-10-01T07:37:38.570Z,1005.82
2018-10-01T07:38:48.554Z,1005.87
2018-10-01T07:39:58.527Z,1005.85
2018-10-01T07:41:08.485Z,1005.89
2018-10-01T07:42:18.442Z,1005.82
2018-10-01T07:43:27.876Z,1005.82
2018-10-01T07:44:37.820Z,1005.77
2018-10-01T07:45:47.568Z,1005.74
2018-10-01T07:46:57.376Z,1005.77
2018-10-01T07:48:07.146Z,1005.76
2018-10-01T07:49:16.881Z,1005.73
2018-10-01T07:50:26.968Z,1005.74
2018-10-01T07:51:37.353Z,1005.75
2018-10-01T07:52:47.148Z,1005.75
2018-10-01T07:53:57.123Z,1005.76
2018-10-01T07:55:06.846Z,1005.8
2018-10-01T07:56:16.872Z,1005.8
2018-10-01T07:57:26.844Z,1005.8
2018-10-01T07:58:37.307Z,1005.83
2018-10-01T07:59:47.178Z,1005.84
2018-10-01T08:00:58.298Z,1005.98
2018-10-01T08:02:08.360Z,1006
2018-10-01T08:03:18.809Z,1006.03
2018-10-01T08:04:28.760Z,1006.02
2018-10-01T08:05:38.205Z,1005.99
2018-10-01T08:06:48.171Z,1006.03
2018-10-01T08:07:57.913Z,1006
2018-10-01T08:09:07.612Z,1005.94
2018-10-01T08:10:17.465Z,1005.94
2018-10-01T08:11:27.187Z,1005.96
2018-10-01T08:12:37.154Z,1005.93
2018-10-01T08:13:46.848Z,1005.96
2018-10-01T08:14:56.833Z,1006.03
2018-10-01T08:17:31.190Z,1006.06
2018-10-01T08:18:40.889Z,1006.08
2018-10-01T08:19:50.333Z,1006.11
2018-10-01T08:21:00.427Z,1006.16
2018-10-01T08:22:10.384Z,1006.12
2018-10-01T08:23:20.083Z,1006.19
2018-10-01T08:24:29.960Z,1006.15
2018-10-01T08:25:39.919Z,1006.25
2018-10-01T08:26:49.891Z,1006.32
2018-10-01T08:27:59.619Z,1006.31
2018-10-01T08:29:09.493Z,1006.27
2018-10-01T08:30:19.457Z,1006.24
2018-10-01T08:31:29.413Z,1006.25
2018-10-01T08:32:38.756Z,1006.33
2018-10-01T08:33:48.898Z,1006.39
2018-10-01T08:34:58.392Z,1006.35
2018-10-01T08:36:08.646Z,1006.38
2018-10-01T08:37:18.364Z,1006.34
2018-10-01T08:38:28.371Z,1006.42
2018-10-01T08:39:38.597Z,1006.39
2018-10-01T08:40:48.587Z,1006.32
2018-10-01T08:41:58.280Z,1006.34
2018-10-01T08:43:08.230Z,1006.36
2018-10-01T08:44:18.215Z,1006.39
2018-10-01T08:45:28.541Z,1006.35
2018-10-01T08:46:38.507Z,1006.36
2018-10-01T08:47:48.201Z,1006.37
2018-10-01T08:48:58.177Z,1006.36
2018-10-01T08:50:08.177Z,1006.34
2018-10-01T08:51:18.683Z,1006.37
2018-10-01T08:52:28.140Z,1006.41
2018-10-01T08:53:38.201Z,1006.38
2018-10-01T08:54:48.233Z,1006.46
2018-10-01T08:55:57.944Z,1006.38
2018-10-01T08:57:08.224Z,1006.36
2018-10-01T08:58:18.180Z,1006.35
2018-10-01T08:59:28.213Z,1006.29
2018-10-01T09:00:37.998Z,1006.25
2018-10-01T09:01:47.950Z,1006.25
2018-10-01T09:02:57.957Z,1006.27
2018-10-01T09:04:07.947Z,1006.29
2018-10-01T09:05:18.048Z,1006.31
2018-10-01T09:06:28.266Z,1006.35
2018-10-01T09:07:37.962Z,1006.31
2018-10-01T09:08:47.953Z,1006.27
2018-10-01T09:09:58.129Z,1006.3
2018-10-01T09:11:08.161Z,1006.31
2018-10-01T09:12:18.685Z,1006.32
2018-10-01T09:13:28.652Z,1006.32
2018-10-01T09:14:38.790Z,1006.33
2018-10-01T09:15:48.586Z,1006.33
2018-10-01T09:16:58.594Z,1006.35
2018-10-01T09:18:08.828Z,1006.42
2018-10-01T09:19:18.791Z,1006.51
2018-10-01T09:20:28.535Z,1006.43
2018-10-01T09:21:38.856Z,1006.37
2018-10-01T09:22:48.637Z,1006.32
2018-10-01T09:23:58.733Z,1006.32
2018-10-01T09:25:08.775Z,1006.38
2018-10-01T09:26:18.571Z,1006.3
2018-10-01T09:27:28.488Z,1006.36
2018-10-01T09:28:38.210Z,1006.31
2018-10-01T09:29:48.184Z,1006.34
2018-10-01T09:30:58.157Z,1006.39
2018-10-01T09:32:08.856Z,1006.4
2018-10-01T09:33:18.875Z,1006.4
2018-10-01T09:34:28.831Z,1006.46
2018-10-01T09:35:38.591Z,1006.5
2018-10-01T09:36:48.649Z,1006.48
2018-10-01T09:37:58.677Z,1006.41
2018-10-01T09:39:08.592Z,1006.44
2018-10-01T09:40:18.316Z,1006.41
2018-10-01T09:41:28.275Z,1006.4
2018-10-01T09:42:37.999Z,1006.41
2018-10-01T09:43:47.461Z,1006.39
2018-10-01T09:44:56.925Z,1006.44
2018-10-01T09:46:06.979Z,1006.44
2018-10-01T09:47:17.440Z,1006.41
2018-10-01T09:48:27.404Z,1006.4
2018-10-01T09:49:37.590Z,1006.43
2018-10-01T09:50:47.063Z,1006.37
2018-10-01T09:51:57.020Z,1006.36
2018-10-01T09:53:07.197Z,1006.35
2018-10-01T09:54:17.163Z,1006.3
2018-10-01T09:55:27.141Z,1006.28
2018-10-01T09:56:36.902Z,1006.26
2018-10-01T09:57:47.177Z,1006.28
2018-10-01T09:58:56.942Z,1006.37
2018-10-01T10:00:06.893Z,1006.24
2018-10-01T10:01:16.604Z,1006.28
2018-10-01T10:02:26.345Z,1006.31
2018-10-01T10:03:36.919Z,1006.23
2018-10-01T10:04:47.008Z,1006.24
2018-10-01T10:05:57.524Z,1006.22
2018-10-01T10:07:07.228Z,1006.23
2018-10-01T10:08:17.081Z,1006.26
2018-10-01T10:09:27.357Z,1006.29
2018-10-01T10:10:37.349Z,1006.3
2018-10-01T10:11:47.388Z,1006.34
2018-10-01T10:12:57.317Z,1006.39
2018-10-01T10:14:07.359Z,1006.41
2018-10-01T10:15:18.048Z,1006.38
2018-10-01T10:16:28.032Z,1006.33
2018-10-01T10:17:38.613Z,1006.35
2018-10-01T10:18:48.370Z,1006.26
2018-10-01T10:19:58.391Z,1006.3
2018-10-01T10:21:08.684Z,1006.36
2018-10-01T10:22:18.681Z,1006.34
2018-10-01T10:23:28.976Z,1006.35
2018-10-01T10:24:38.944Z,1006.31
2018-10-01T10:25:48.955Z,1006.31
2018-10-01T10:26:58.980Z,1006.27
2018-10-01T10:28:09.017Z,1006.38
2018-10-01T10:29:18.862Z,1006.31
2018-10-01T10:30:28.813Z,1006.34
2018-10-01T10:31:38.506Z,1006.38
2018-10-01T10:32:48.479Z,1006.34
2018-10-01T10:33:58.460Z,1006.32
2018-10-01T10:35:08.681Z,1006.35
2018-10-01T10:36:18.738Z,1006.36
2018-10-01T10:37:28.725Z,1006.33
2018-10-01T10:38:38.858Z,1006.27
2018-10-01T10:39:48.725Z,1006.28
2018-10-01T10:40:58.731Z,1006.32
2018-10-01T10:42:08.460Z,1006.39
2018-10-01T10:43:18.486Z,1006.3
2018-10-01T10:44:28.551Z,1006.38
2018-10-01T10:45:38.589Z,1006.42
2018-10-01T10:46:48.298Z,1006.42
2018-10-01T10:47:57.759Z,1006.37
2018-10-01T10:49:08.093Z,1006.36
2018-10-01T10:50:17.892Z,1006.43
2018-10-01T10:51:27.839Z,1006.39
2018-10-01T10:52:37.265Z,1006.41
2018-10-01T10:53:46.987Z,1006.37
2018-10-01T10:54:56.977Z,1006.42
2018-10-01T10:56:06.738Z,1006.49
2018-10-01T10:57:17.362Z,1006.41
2018-10-01T10:58:27.329Z,1006.48
2018-10-01T10:59:37.303Z,1006.43
2018-10-01T11:00:47.258Z,1006.56
2018-10-01T11:01:57.248Z,1006.38
2018-10-01T11:03:07.505Z,1006.49
2018-10-01T11:04:17.199Z,1006.47
2018-10-01T11:05:26.643Z,1006.55
2018-10-01T11:06:36.614Z,1006.51
2018-10-01T11:07:46.563Z,1006.43
2018-10-01T11:08:56.534Z,1006.51
2018-10-01T11:10:06.231Z,1006.47
2018-10-01T11:11:15.939Z,1006.51
2018-10-01T11:12:25.376Z,1006.54
2018-10-01T11:13:35.087Z,1006.57
2018-10-01T11:14:44.886Z,1006.51
2018-10-01T11:15:55.266Z,1006.55
2018-10-01T11:17:05.257Z,1006.47
2018-10-01T11:18:15.473Z,1006.64
2018-10-01T11:19:25.424Z,1006.47
2018-10-01T11:20:35.611Z,1006.53
2018-10-01T11:21:45.756Z,1006.55
2018-10-01T11:22:56.235Z,1006.54
2018-10-01T11:24:06.163Z,1006.46
2018-10-01T11:25:16.151Z,1006.49
2018-10-01T11:26:26.534Z,1006.41
2018-10-01T11:27:36.596Z,1006.4
2018-10-01T11:28:47.197Z,1006.4
2018-10-01T11:29:57.657Z,1006.52
2018-10-01T11:31:07.719Z,1006.45
2018-10-01T11:32:17.711Z,1006.46
2018-10-01T11:33:27.735Z,1006.43
2018-10-01T11:34:37.772Z,1006.47
2018-10-01T11:35:48.061Z,1006.4
2018-10-01T11:36:58.048Z,1006.36
2018-10-01T11:38:08.069Z,1006.41
2018-10-01T11:39:17.883Z,1006.49
2018-10-01T11:40:27.819Z,1006.42
2018-10-01T11:41:37.785Z,1006.51
2018-10-01T11:42:47.749Z,1006.4
2018-10-01T11:43:57.513Z,1006.5
2018-10-01T11:45:07.506Z,1006.47
2018-10-01T11:46:18.080Z,1006.52
2018-10-01T11:47:28.274Z,1006.38
2018-10-01T11:48:38.237Z,1006.38
2018-10-01T11:49:47.690Z,1006.45
2018-10-01T11:50:57.749Z,1006.6
2018-10-01T11:52:07.659Z,1006.56
2018-10-01T11:53:17.402Z,1006.49
2018-10-01T11:54:27.234Z,1006.56
2018-10-01T11:55:37.474Z,1006.49
2018-10-01T11:56:47.443Z,1006.55
2018-10-01T11:57:57.442Z,1006.68
2018-10-01T11:59:07.416Z,1006.52
2018-10-01T12:00:17.413Z,1006.44
2018-10-01T12:01:27.092Z,1006.57
2018-10-01T12:02:37.074Z,1006.51
2018-10-01T12:03:47.265Z,1006.59
2018-10-01T12:04:57.440Z,1006.69
2018-10-01T12:06:07.176Z,1006.69
2018-10-01T12:07:17.142Z,1006.55
2018-10-01T12:08:27.107Z,1006.59
2018-10-01T12:09:37.112Z,1006.55
2018-10-01T12:10:47.921Z,1006.53
2018-10-01T12:11:57.891Z,1006.6
2018-10-01T12:13:07.848Z,1006.58
2018-10-01T12:14:17.860Z,1006.5
2018-10-01T12:15:27.884Z,1006.51
2018-10-01T12:16:37.644Z,1006.49
2018-10-01T12:17:47.625Z,1006.47
2018-10-01T12:18:57.618Z,1006.58
2018-10-01T12:20:07.613Z,1006.53
2018-10-01T12:21:17.470Z,1006.57
2018-10-01T12:22:27.560Z,1006.54
2018-10-01T12:23:37.361Z,1006.54
2018-10-01T12:24:47.085Z,1006.58
2018-10-01T12:25:56.789Z,1006.52
2018-10-01T12:27:06.755Z,1006.75
2018-10-01T12:28:17.222Z,1006.61
2018-10-01T12:29:27.202Z,1006.53
2018-10-01T12:30:37.191Z,1006.6
2018-10-01T12:31:46.928Z,1006.62
2018-10-01T12:32:56.910Z,1006.63
2018-10-01T12:34:07.192Z,1006.54
2018-10-01T12:35:17.139Z,1006.55
2018-10-01T12:36:26.847Z,1006.6
2018-10-01T12:37:36.790Z,1006.64
2018-10-01T12:38:46.753Z,1006.63
2018-10-01T12:39:56.737Z,1006.64
2018-10-01T12:41:06.451Z,1006.62
2018-10-01T12:42:16.158Z,1006.61
2018-10-01T12:43:25.860Z,1006.56
2018-10-01T12:44:35.946Z,1006.65
2018-10-01T12:45:45.958Z,1006.67
2018-10-01T12:46:56.020Z,1006.65
2018-10-01T12:48:06.130Z,1006.61
2018-10-01T12:49:15.581Z,1006.63
2018-10-01T12:50:25.303Z,1006.67
2018-10-01T12:51:35.375Z,1006.65
2018-10-01T12:52:45.790Z,1006.66
2018-10-01T12:53:55.750Z,1006.69
2018-10-01T12:55:05.437Z,1006.67
2018-10-01T12:56:15.368Z,1006.62
2018-10-01T12:57:25.332Z,1006.65
2018-10-01T12:58:35.637Z,1006.66
2018-10-01T12:59:45.429Z,1006.72
2018-10-01T13:00:55.370Z,1006.67
2018-10-01T13:02:05.352Z,1006.63
2018-10-01T13:03:15.339Z,1006.64
2018-10-01T13:04:25.870Z,1006.61
2018-10-01T13:05:36.136Z,1006.63
2018-10-01T13:06:46.435Z,1006.73
2018-10-01T13:07:56.193Z,1006.7
2018-10-01T13:09:06.339Z,1006.7
2018-10-01T13:10:16.043Z,1006.67
2018-10-01T13:11:25.801Z,1006.63
2018-10-01T13:12:35.807Z,1006.65
2018-10-01T13:13:46.508Z,1006.61
2018-10-01T13:14:55.762Z,1006.67
2018-10-01T13:16:05.750Z,1006.7
2018-10-01T13:17:15.741Z,1006.71
2018-10-01T13:18:25.769Z,1006.78
2018-10-01T13:19:35.816Z,1006.76
2018-10-01T13:20:45.885Z,1006.78
2018-10-01T13:21:55.362Z,1006.81
2018-10-01T13:23:05.982Z,1006.79
2018-10-01T13:24:16.516Z,1006.91
2018-10-01T13:25:26.826Z,1006.88
2018-10-01T13:26:36.571Z,1006.85
2018-10-01T13:27:46.280Z,1006.85
2018-10-01T13:28:56.015Z,1006.75
2018-10-01T13:30:06.064Z,1006.77
2018-10-01T13:31:16.007Z,1006.76
2018-10-01T13:32:26.018Z,1006.71
2018-10-01T13:33:36.020Z,1006.69
2018-10-01T13:34:45.990Z,1006.67
2018-10-01T13:35:55.736Z,1006.68
2018-10-01T13:37:06.088Z,1006.65
2018-10-01T13:38:16.065Z,1006.61
2018-10-01T13:39:26.050Z,1006.58
2018-10-01T13:40:35.750Z,1006.56
2018-10-01T13:41:45.764Z,1006.63
2018-10-01T13:42:56.256Z,1006.57
2018-10-01T13:44:06.276Z,1006.7
2018-10-01T13:45:16.488Z,1006.67
2018-10-01T13:46:26.223Z,1006.64
2018-10-01T13:47:36.205Z,1006.61
2018-10-01T13:48:45.981Z,1006.61
2018-10-01T13:49:56.187Z,1006.49
2018-10-01T13:51:06.168Z,1006.65
2018-10-01T13:52:15.996Z,1006.62
2018-10-01T13:53:26.349Z,1006.56
2018-10-01T13:54:36.459Z,1006.63
2018-10-01T13:55:47.288Z,1006.57
2018-10-01T13:56:57.278Z,1006.57
2018-10-01T13:58:07.404Z,1006.58
2018-10-01T13:59:17.689Z,1006.54
2018-10-01T14:00:28.092Z,1006.52
2018-10-01T14:01:38.944Z,1006.49
2018-10-01T14:02:49.366Z,1006.51
2018-10-01T14:03:59.348Z,1006.53
2018-10-01T14:05:09.315Z,1006.54
2018-10-01T14:06:19.317Z,1006.56
2018-10-01T14:07:30.069Z,1006.5
2018-10-01T14:08:40.602Z,1006.47